Time;durP1;ratioP1;P1;durP2;ratioP2;P2;SDS_P1;SDS_P2;PMS_P1;PMS_P2;Temp;Humidity;BMP_temperature;BMP_pressure;BME280_temperature;BME280_humidity;BME280_pressure;Samples;Min_cycle;Max_cycle;Signal;HPM_P1;HPM_P2
2022/10/28 00:03:25;;;;;;;5.13;2.17;;;;;;;;;;10429271;28;20117;-61
2022/10/28 00:08:26;;;;;;;4.80;2.50;;;;;;;;;;10428327;28;20040;-59
2022/10/28 00:13:27;;;;;;;4.72;2.45;;;;;;;;;;10428527;28;20025;-58
2022/10/28 00:18:28;;;;;;;4.63;2.22;;;;;;;;;;10428908;28;20036;-60
2022/10/28 00:23:29;;;;;;;3.28;2.22;;;;;;;;;;10428818;28;20473;-58
2022/10/28 00:28:30;;;;;;;3.53;2.15;;;;;;;;;;10427918;28;20029;-59
2022/10/28 00:33:30;;;;;;;6.25;2.50;;;;;;;;;;10427967;28;20033;-58
2022/10/28 00:38:34;;;;;;;3.40;1.90;;;;;;;;;;10427818;28;20128;-58
2022/10/28 00:43:39;;;;;;;2.30;2.07;;;;;;;;;;10427933;28;20108;-59
2022/10/28 00:48:41;;;;;;;2.13;1.70;;;;;;;;;;10427895;28;20463;-59
2022/10/28 00:53:43;;;;;;;2.28;2.05;;;;;;;;;;10427676;28;20034;-58
2022/10/28 00:58:46;;;;;;;1.95;1.73;;;;;;;;;;10427324;28;20095;-57
2022/10/28 01:03:47;;;;;;;4.78;1.95;;;;;;;;;;10425049;28;20038;-56
2022/10/28 01:08:48;;;;;;;4.32;2.10;;;;;;;;;;10420799;28;20033;-59
2022/10/28 01:13:51;;;;;;;3.08;2.22;;;;;;;;;;10420793;28;20029;-63
2022/10/28 01:18:52;;;;;;;3.05;2.20;;;;;;;;;;10420777;28;20030;-59
2022/10/28 01:24:05;;;;;;;2.15;1.95;;;;;;;;;;10420418;28;20033;-58
2022/10/28 01:29:18;;;;;;;2.67;2.10;;;;;;;;;;10420079;28;20029;-60
2022/10/28 01:34:38;;;;;;;4.25;1.75;;;;;;;;;;10420679;28;20025;-61
2022/10/28 01:39:58;;;;;;;2.42;2.05;;;;;;;;;;10420290;28;20041;-58
2022/10/28 01:44:59;;;;;;;2.15;1.83;;;;;;;;;;10420220;28;20121;-59
2022/10/28 01:50:30;;;;;;;1.67;1.48;;;;;;;;;;10419242;28;20037;-59
2022/10/28 01:55:38;;;;;;;2.40;1.80;;;;;;;;;;10410904;28;20117;-62
2022/10/28 02:00:39;;;;;;;2.20;2.00;;;;;;;;;;10418852;28;20515;-64
2022/10/28 02:05:45;;;;;;;3.03;2.10;;;;;;;;;;10418760;28;20040;-64
2022/10/28 02:10:46;;;;;;;3.20;2.03;;;;;;;;;;10418464;28;20034;-64
2022/10/28 02:16:01;;;;;;;4.03;1.98;;;;;;;;;;10418132;28;20029;-62
2022/10/28 02:21:10;;;;;;;5.18;2.03;;;;;;;;;;10418834;28;20040;-57
2022/10/28 02:26:15;;;;;;;2.25;1.80;;;;;;;;;;10417779;28;20507;-58
2022/10/28 02:31:34;;;;;;;3.05;2.00;;;;;;;;;;10418349;28;20041;-55
2022/10/28 02:36:37;;;;;;;3.30;1.88;;;;;;;;;;10418068;28;20026;-60
2022/10/28 02:41:54;;;;;;;2.08;1.75;;;;;;;;;;10417977;28;20148;-56
2022/10/28 02:46:58;;;;;;;2.58;1.88;;;;;;;;;;10417652;28;20034;-58
2022/10/28 02:52:01;;;;;;;1.88;1.70;;;;;;;;;;10418137;28;20025;-60
2022/10/28 02:57:11;;;;;;;3.00;1.55;;;;;;;;;;10416412;28;20167;-58
2022/10/28 03:02:11;;;;;;;4.60;1.95;;;;;;;;;;10416621;28;20053;-59
2022/10/28 03:07:12;;;;;;;1.93;1.60;;;;;;;;;;10416329;28;20041;-58
2022/10/28 03:12:13;;;;;;;1.60;1.50;;;;;;;;;;10416902;28;20437;-59
2022/10/28 03:17:13;;;;;;;2.22;1.75;;;;;;;;;;10416000;28;20032;-56
2022/10/28 03:22:14;;;;;;;2.33;1.90;;;;;;;;;;10416519;28;20037;-58
2022/10/28 03:27:15;;;;;;;2.42;1.70;;;;;;;;;;10414947;28;20041;-58
2022/10/28 03:32:16;;;;;;;3.30;2.13;;;;;;;;;;10415572;28;20036;-59
2022/10/28 03:37:16;;;;;;;2.47;1.60;;;;;;;;;;10414204;28;20040;-61
2022/10/28 03:42:17;;;;;;;3.67;1.90;;;;;;;;;;10415946;28;20538;-56
2022/10/28 03:47:18;;;;;;;1.67;1.57;;;;;;;;;;10415161;28;20072;-63
2022/10/28 03:52:18;;;;;;;4.57;1.73;;;;;;;;;;10415155;28;20826;-63
2022/10/28 03:57:19;;;;;;;1.73;1.63;;;;;;;;;;10415283;28;20052;-62
2022/10/28 04:02:19;;;;;;;1.90;1.58;;;;;;;;;;10415592;28;20842;-63
2022/10/28 04:07:21;;;;;;;1.65;1.55;;;;;;;;;;10414666;28;20033;-64
2022/10/28 04:12:21;;;;;;;3.17;2.00;;;;;;;;;;10414845;28;20477;-63
2022/10/28 04:17:23;;;;;;;2.22;1.60;;;;;;;;;;10415173;28;20065;-64
2022/10/28 04:22:24;;;;;;;2.03;1.63;;;;;;;;;;10415176;28;20079;-65
2022/10/28 04:27:24;;;;;;;1.58;1.48;;;;;;;;;;10414367;28;20077;-65
2022/10/28 04:32:25;;;;;;;1.75;1.58;;;;;;;;;;10414465;28;20032;-64
2022/10/28 04:37:26;;;;;;;2.10;1.70;;;;;;;;;;10415312;28;20079;-65
2022/10/28 04:42:27;;;;;;;2.45;1.60;;;;;;;;;;10422088;28;20053;-65
2022/10/28 04:47:28;;;;;;;2.25;1.45;;;;;;;;;;10422259;28;20044;-62
2022/10/28 04:52:29;;;;;;;1.67;1.53;;;;;;;;;;10422282;28;20029;-58
2022/10/28 04:57:31;;;;;;;3.05;1.63;;;;;;;;;;10421175;28;20072;-59
2022/10/28 05:02:31;;;;;;;2.50;1.80;;;;;;;;;;10417303;28;20025;-63
2022/10/28 05:07:32;;;;;;;1.58;1.48;;;;;;;;;;10411138;28;20032;-59
2022/10/28 05:12:32;;;;;;;1.40;1.30;;;;;;;;;;10406819;28;20033;-62
2022/10/28 05:17:33;;;;;;;1.95;1.60;;;;;;;;;;10403578;28;20025;-61
2022/10/28 05:22:33;;;;;;;2.00;1.90;;;;;;;;;;10408741;28;20029;-61
2022/10/28 05:27:33;;;;;;;4.22;1.92;;;;;;;;;;10395750;28;20032;-61
2022/10/28 05:32:33;;;;;;;2.70;1.80;;;;;;;;;;10410086;28;20117;-57
2022/10/28 05:37:34;;;;;;;3.75;1.92;;;;;;;;;;10410085;28;20029;-60
2022/10/28 05:42:39;;;;;;;1.95;1.65;;;;;;;;;;10402547;28;20085;-54
2022/10/28 05:47:43;;;;;;;5.80;2.08;;;;;;;;;;10405709;28;20104;-61
2022/10/28 05:52:53;;;;;;;2.03;1.75;;;;;;;;;;10406320;28;20029;-60
2022/10/28 05:57:54;;;;;;;2.65;2.20;;;;;;;;;;10403716;28;20052;-60
2022/10/28 06:03:08;;;;;;;6.50;2.47;;;;;;;;;;10389860;28;20388;-61
2022/10/28 06:08:09;;;;;;;8.77;2.28;;;;;;;;;;10396132;28;20056;-57
2022/10/28 06:13:09;;;;;;;8.32;2.35;;;;;;;;;;10392283;28;20053;-60
2022/10/28 06:18:09;;;;;;;5.95;2.40;;;;;;;;;;10412037;28;20140;-54
2022/10/28 06:23:10;;;;;;;3.42;2.17;;;;;;;;;;10402111;28;20138;-62
2022/10/28 06:28:10;;;;;;;4.32;2.38;;;;;;;;;;10407833;28;20082;-61
2022/10/28 06:33:10;;;;;;;4.47;2.30;;;;;;;;;;10401744;28;20018;-56
2022/10/28 06:38:10;;;;;;;9.07;2.60;;;;;;;;;;10405454;28;20074;-60
2022/10/28 06:43:12;;;;;;;9.15;2.50;;;;;;;;;;10401876;28;20387;-61
2022/10/28 06:48:13;;;;;;;5.43;2.28;;;;;;;;;;10408471;28;20051;-60
2022/10/28 06:53:13;;;;;;;11.45;2.97;;;;;;;;;;10401606;28;20021;-57
2022/10/28 06:58:14;;;;;;;5.78;2.47;;;;;;;;;;10406114;28;20600;-60
2022/10/28 07:03:14;;;;;;;5.22;2.38;;;;;;;;;;10393660;28;20030;-56
2022/10/28 07:08:15;;;;;;;9.02;2.40;;;;;;;;;;10398622;28;20033;-57
2022/10/28 07:13:15;;;;;;;7.40;2.63;;;;;;;;;;10396725;28;20034;-57
2022/10/28 07:18:16;;;;;;;7.70;2.90;;;;;;;;;;10397827;28;20060;-54
2022/10/28 07:23:16;;;;;;;3.97;2.30;;;;;;;;;;10400376;28;20112;-60
2022/10/28 07:28:17;;;;;;;9.02;2.47;;;;;;;;;;10402819;28;20038;-57
2022/10/28 07:33:17;;;;;;;4.80;2.10;;;;;;;;;;10405270;28;20530;-61
2022/10/28 07:38:17;;;;;;;3.40;2.63;;;;;;;;;;10396345;28;20129;-54
2022/10/28 07:43:17;;;;;;;5.15;2.70;;;;;;;;;;10391516;28;20033;-60
2022/10/28 07:48:18;;;;;;;4.10;2.35;;;;;;;;;;10406296;28;20408;-60
2022/10/28 07:53:18;;;;;;;5.95;2.28;;;;;;;;;;10398209;28;20022;-61
2022/10/28 07:58:18;;;;;;;2.97;2.15;;;;;;;;;;10405153;28;20056;-60
2022/10/28 08:03:19;;;;;;;3.40;2.10;;;;;;;;;;10394463;28;20022;-60
2022/10/28 08:08:19;;;;;;;6.45;2.20;;;;;;;;;;10405663;28;20033;-63
2022/10/28 08:13:19;;;;;;;5.00;2.40;;;;;;;;;;10397389;28;20117;-58
2022/10/28 08:18:20;;;;;;;5.97;1.98;;;;;;;;;;10408304;28;20021;-63
2022/10/28 08:23:20;;;;;;;5.28;2.17;;;;;;;;;;10411766;28;20112;-54
2022/10/28 08:28:21;;;;;;;6.95;2.75;;;;;;;;;;10415670;28;20734;-61
2022/10/28 08:33:21;;;;;;;5.90;2.40;;;;;;;;;;10411419;28;20030;-61
2022/10/28 08:38:22;;;;;;;3.65;2.50;;;;;;;;;;10414495;28;20021;-61
2022/10/28 08:43:34;;;;;;;5.10;2.40;;;;;;;;;;10405343;28;20113;-62
2022/10/28 08:48:35;;;;;;;4.45;2.00;;;;;;;;;;10410539;28;20034;-60
2022/10/28 08:53:52;;;;;;;3.45;2.13;;;;;;;;;;10406071;28;20048;-59
2022/10/28 08:58:55;;;;;;;3.08;2.30;;;;;;;;;;10415119;28;20037;-59
2022/10/28 09:03:57;;;;;;;6.68;2.40;;;;;;;;;;10408419;28;20099;-60
2022/10/28 09:08:57;;;;;;;8.70;2.58;;;;;;;;;;10413719;28;20067;-61
2022/10/28 09:14:05;;;;;;;7.37;2.33;;;;;;;;;;10414252;28;20040;-58
2022/10/28 09:19:25;;;;;;;6.47;2.50;;;;;;;;;;10408986;28;20029;-59
2022/10/28 09:24:36;;;;;;;6.07;2.97;;;;;;;;;;10386530;28;20405;-59
2022/10/28 09:29:48;;;;;;;4.40;2.30;;;;;;;;;;10403715;28;20048;-59
2022/10/28 09:35:01;;;;;;;3.15;2.35;;;;;;;;;;10409630;28;20029;-61
2022/10/28 09:40:04;;;;;;;6.20;2.60;;;;;;;;;;10408600;28;20063;-61
2022/10/28 09:45:10;;;;;;;4.50;2.55;;;;;;;;;;10401571;28;20100;-61
2022/10/28 09:50:16;;;;;;;3.28;2.50;;;;;;;;;;10407266;28;20489;-62
2022/10/28 09:55:19;;;;;;;8.75;2.20;;;;;;;;;;10403550;28;20033;-61
2022/10/28 10:00:20;;;;;;;4.55;2.50;;;;;;;;;;10410450;28;20107;-62
2022/10/28 10:05:20;;;;;;;9.35;2.50;;;;;;;;;;10417629;28;20103;-61
2022/10/28 10:10:22;;;;;;;8.70;2.50;;;;;;;;;;10400088;28;20029;-61
2022/10/28 10:15:26;;;;;;;5.00;2.47;;;;;;;;;;10416022;28;20099;-61
2022/10/28 10:20:27;;;;;;;5.35;2.22;;;;;;;;;;10406825;28;20405;-61
2022/10/28 10:25:30;;;;;;;6.83;2.83;;;;;;;;;;10406952;28;20021;-57
2022/10/28 10:30:33;;;;;;;3.92;2.22;;;;;;;;;;10406741;28;20021;-61
2022/10/28 10:35:35;;;;;;;6.53;2.85;;;;;;;;;;10408381;28;20099;-61
2022/10/28 10:40:45;;;;;;;4.78;2.30;;;;;;;;;;10396422;28;20102;-61
2022/10/28 10:46:01;;;;;;;5.20;2.58;;;;;;;;;;10380649;28;20425;-59
2022/10/28 10:51:16;;;;;;;5.00;2.72;;;;;;;;;;10383698;28;20366;-61
2022/10/28 10:56:43;;;;;;;3.50;2.00;;;;;;;;;;10373487;28;20017;-60
2022/10/28 11:01:43;;;;;;;7.65;2.40;;;;;;;;;;10372152;28;20566;-59
2022/10/28 11:06:48;;;;;;;5.17;2.13;;;;;;;;;;10392079;28;20169;-61
2022/10/28 11:11:48;;;;;;;4.38;2.60;;;;;;;;;;10393340;28;20117;-59
2022/10/28 11:16:52;;;;;;;4.27;2.10;;;;;;;;;;10392411;28;20552;-61
2022/10/28 11:22:08;;;;;;;3.58;2.20;;;;;;;;;;10385826;28;20043;-62
2022/10/28 11:27:17;;;;;;;5.95;2.50;;;;;;;;;;10399895;28;20480;-61
2022/10/28 11:32:26;;;;;;;7.05;2.83;;;;;;;;;;10408244;28;20053;-58
2022/10/28 11:37:32;;;;;;;6.80;2.55;;;;;;;;;;10399510;28;20022;-60
2022/10/28 11:42:45;;;;;;;5.07;2.20;;;;;;;;;;10393897;28;20416;-56
2022/10/28 11:48:11;;;;;;;3.85;2.35;;;;;;;;;;10399553;28;20034;-60
2022/10/28 11:53:11;;;;;;;6.60;2.60;;;;;;;;;;10378322;28;20470;-57
2022/10/28 11:58:23;;;;;;;5.05;3.08;;;;;;;;;;10391004;28;20103;-56
2022/10/28 12:03:26;;;;;;;7.40;2.90;;;;;;;;;;10411578;28;20058;-60
2022/10/28 12:08:54;;;;;;;3.92;2.75;;;;;;;;;;10399569;28;20112;-59
2022/10/28 12:14:14;;;;;;;7.72;2.85;;;;;;;;;;10394924;28;20112;-55
2022/10/28 12:19:27;;;;;;;5.47;2.95;;;;;;;;;;10400525;28;20439;-57
2022/10/28 12:24:29;;;;;;;5.38;3.15;;;;;;;;;;10396726;28;20026;-59
2022/10/28 12:29:36;;;;;;;8.80;2.72;;;;;;;;;;10403543;28;20040;-56
2022/10/28 12:34:56;;;;;;;5.57;2.92;;;;;;;;;;10402314;28;20125;-55
2022/10/28 12:40:05;;;;;;;7.45;3.20;;;;;;;;;;10389955;28;20037;-59
2022/10/28 12:45:09;;;;;;;4.10;2.50;;;;;;;;;;10388264;28;20470;-55
2022/10/28 12:50:27;;;;;;;6.82;2.75;;;;;;;;;;10403941;28;20041;-58
2022/10/28 12:55:36;;;;;;;3.40;2.40;;;;;;;;;;10388143;28;20382;-57
2022/10/28 13:00:41;;;;;;;3.17;2.15;;;;;;;;;;10398080;28;20311;-60
2022/10/28 13:05:47;;;;;;;7.65;2.80;;;;;;;;;;10410596;28;20037;-60
2022/10/28 13:10:51;;;;;;;10.60;2.90;;;;;;;;;;10402602;28;20450;-49
2022/10/28 13:16:01;;;;;;;9.52;2.83;;;;;;;;;;10394432;28;20552;-59
2022/10/28 13:21:07;;;;;;;4.30;2.45;;;;;;;;;;10394866;28;20025;-60
2022/10/28 13:26:25;;;;;;;6.63;2.53;;;;;;;;;;10409403;28;20057;-59
2022/10/28 13:31:39;;;;;;;7.85;2.55;;;;;;;;;;10392375;28;20112;-49
2022/10/28 13:36:41;;;;;;;14.80;3.58;;;;;;;;;;10409799;28;20037;-57
2022/10/28 13:41:41;;;;;;;16.45;3.83;;;;;;;;;;10407390;28;20021;-57
2022/10/28 13:47:00;;;;;;;18.20;3.15;;;;;;;;;;10408115;28;20029;-61
2022/10/28 13:52:02;;;;;;;11.55;2.90;;;;;;;;;;10404308;28;20419;-60
2022/10/28 13:57:05;;;;;;;5.45;2.75;;;;;;;;;;10389998;28;20143;-58
2022/10/28 14:02:21;;;;;;;4.70;3.03;;;;;;;;;;10395824;28;20061;-60
2022/10/28 14:07:25;;;;;;;9.00;2.72;;;;;;;;;;10395339;28;20359;-61
2022/10/28 14:12:27;;;;;;;3.88;2.85;;;;;;;;;;10397183;28;20551;-58
2022/10/28 14:17:40;;;;;;;9.05;2.97;;;;;;;;;;10393837;28;20573;-58
2022/10/28 14:22:40;;;;;;;12.20;3.55;;;;;;;;;;10397333;28;20090;-61
2022/10/28 14:27:42;;;;;;;6.88;2.95;;;;;;;;;;10401788;28;20090;-59
2022/10/28 14:32:44;;;;;;;15.90;4.10;;;;;;;;;;10405912;28;20037;-58
2022/10/28 14:38:03;;;;;;;17.02;3.92;;;;;;;;;;10400871;28;20022;-61
2022/10/28 14:43:21;;;;;;;16.90;4.18;;;;;;;;;;10389750;28;20030;-50
2022/10/28 14:48:28;;;;;;;10.13;3.60;;;;;;;;;;10397989;28;20260;-48
2022/10/28 14:53:29;;;;;;;14.52;4.00;;;;;;;;;;10399673;28;20025;-61
2022/10/28 14:58:34;;;;;;;8.75;4.28;;;;;;;;;;10396579;28;20056;-62
2022/10/28 15:03:34;;;;;;;10.27;4.40;;;;;;;;;;10402688;28;20038;-62
2022/10/28 15:08:34;;;;;;;8.40;3.97;;;;;;;;;;10389528;28;20034;-48
2022/10/28 15:13:35;;;;;;;13.40;3.95;;;;;;;;;;10391211;28;20452;-61
2022/10/28 15:18:35;;;;;;;8.97;4.13;;;;;;;;;;10384774;28;20038;-48
2022/10/28 15:23:35;;;;;;;13.07;3.80;;;;;;;;;;10384448;28;20037;-62
2022/10/28 15:28:36;;;;;;;8.57;3.85;;;;;;;;;;10390893;28;20041;-62
2022/10/28 15:33:40;;;;;;;11.93;3.97;;;;;;;;;;10391017;28;20137;-62
2022/10/28 15:38:44;;;;;;;21.20;3.63;;;;;;;;;;10405593;28;20060;-62
2022/10/28 15:43:52;;;;;;;8.75;3.63;;;;;;;;;;10380922;28;20034;-61
2022/10/28 15:48:53;;;;;;;8.57;3.42;;;;;;;;;;10395827;28;20044;-59
2022/10/28 15:53:54;;;;;;;8.73;3.45;;;;;;;;;;10382275;28;20041;-61
2022/10/28 15:58:57;;;;;;;6.47;3.05;;;;;;;;;;10381310;28;20045;-61
2022/10/28 16:03:57;;;;;;;9.85;3.33;;;;;;;;;;10383256;28;20041;-61
2022/10/28 16:09:18;;;;;;;7.47;3.17;;;;;;;;;;10377913;28;20026;-59
2022/10/28 16:14:18;;;;;;;12.30;3.75;;;;;;;;;;10387640;28;20096;-60
2022/10/28 16:19:26;;;;;;;11.70;3.25;;;;;;;;;;10401866;28;20030;-59
2022/10/28 16:24:27;;;;;;;9.77;3.22;;;;;;;;;;10378552;28;20105;-59
2022/10/28 16:29:27;;;;;;;7.75;3.20;;;;;;;;;;10400835;28;20396;-57
2022/10/28 16:34:27;;;;;;;15.57;3.70;;;;;;;;;;10391922;28;20401;-60
2022/10/28 16:39:27;;;;;;;7.68;3.40;;;;;;;;;;10397682;28;20428;-47
2022/10/28 16:44:28;;;;;;;9.30;3.83;;;;;;;;;;10411188;28;20018;-58
2022/10/28 16:49:28;;;;;;;5.90;3.15;;;;;;;;;;10384614;28;20083;-59
2022/10/28 16:54:28;;;;;;;9.00;3.35;;;;;;;;;;10400515;28;20040;-58
2022/10/28 16:59:28;;;;;;;9.05;3.15;;;;;;;;;;10399794;28;20041;-63
2022/10/28 17:04:29;;;;;;;3.30;2.63;;;;;;;;;;10401012;28;20112;-63
2022/10/28 17:09:29;;;;;;;5.63;3.03;;;;;;;;;;10410227;28;20040;-63
2022/10/28 17:14:30;;;;;;;6.72;2.70;;;;;;;;;;10399944;28;20068;-59
2022/10/28 17:19:30;;;;;;;4.45;2.72;;;;;;;;;;10404145;28;20026;-62
2022/10/28 17:24:30;;;;;;;5.20;2.95;;;;;;;;;;10397325;28;20067;-63
2022/10/28 17:29:30;;;;;;;8.52;3.38;;;;;;;;;;10402900;28;20389;-63
2022/10/28 17:34:31;;;;;;;5.15;3.20;;;;;;;;;;10411264;28;20366;-63
2022/10/28 17:39:31;;;;;;;6.00;3.00;;;;;;;;;;10386013;28;20026;-65
2022/10/28 17:44:31;;;;;;;8.73;2.90;;;;;;;;;;10389280;28;20104;-60
2022/10/28 17:49:35;;;;;;;4.18;2.50;;;;;;;;;;10401078;28;20026;-54
2022/10/28 17:54:35;;;;;;;5.20;3.03;;;;;;;;;;10396438;28;20037;-64
2022/10/28 17:59:35;;;;;;;9.57;2.97;;;;;;;;;;10408407;28;20037;-63
2022/10/28 18:04:36;;;;;;;6.97;3.10;;;;;;;;;;10406229;28;20029;-63
2022/10/28 18:09:36;;;;;;;7.05;3.20;;;;;;;;;;10399029;28;20148;-57
2022/10/28 18:14:37;;;;;;;5.43;3.25;;;;;;;;;;10397064;28;20037;-62
2022/10/28 18:19:37;;;;;;;11.82;3.83;;;;;;;;;;10402181;28;20029;-63
2022/10/28 18:24:38;;;;;;;8.37;3.43;;;;;;;;;;10402381;28;20491;-59
2022/10/28 18:29:38;;;;;;;8.87;3.60;;;;;;;;;;10396105;28;20498;-61
2022/10/28 18:34:38;;;;;;;7.80;3.78;;;;;;;;;;10405082;28;20467;-58
2022/10/28 18:39:39;;;;;;;9.20;3.65;;;;;;;;;;10405986;28;20026;-63
2022/10/28 18:44:40;;;;;;;5.43;3.10;;;;;;;;;;10395758;28;20036;-60
2022/10/28 18:49:40;;;;;;;9.23;2.88;;;;;;;;;;10399328;28;20033;-59
2022/10/28 18:54:40;;;;;;;6.80;3.30;;;;;;;;;;10403259;28;20369;-55
2022/10/28 18:59:41;;;;;;;7.88;3.22;;;;;;;;;;10391304;28;20048;-55
2022/10/28 19:04:41;;;;;;;6.80;3.40;;;;;;;;;;10402863;28;20077;-58
2022/10/28 19:09:41;;;;;;;5.45;3.20;;;;;;;;;;10402270;28;20044;-48
2022/10/28 19:14:42;;;;;;;8.48;3.38;;;;;;;;;;10389062;28;20034;-48
2022/10/28 19:19:42;;;;;;;7.55;3.30;;;;;;;;;;10409071;28;20030;-49
2022/10/28 19:24:42;;;;;;;13.43;4.00;;;;;;;;;;10403778;28;20041;-54
2022/10/28 19:29:43;;;;;;;22.80;3.73;;;;;;;;;;10402788;28;20037;-49
2022/10/28 19:34:43;;;;;;;10.97;3.30;;;;;;;;;;10403830;28;20459;-49
2022/10/28 19:39:43;;;;;;;20.42;3.75;;;;;;;;;;10406731;28;20539;-48
2022/10/28 19:44:43;;;;;;;8.25;3.45;;;;;;;;;;10395832;28;20030;-57
2022/10/28 19:49:44;;;;;;;12.18;3.55;;;;;;;;;;10382011;28;20075;-59
2022/10/28 19:54:44;;;;;;;20.33;3.50;;;;;;;;;;10395503;28;20022;-56
2022/10/28 19:59:44;;;;;;;28.35;3.65;;;;;;;;;;10399344;28;20107;-57
2022/10/28 20:04:47;;;;;;;5.15;2.92;;;;;;;;;;10401342;28;20029;-52
2022/10/28 20:09:48;;;;;;;12.65;3.08;;;;;;;;;;10399244;28;20030;-48
2022/10/28 20:14:48;;;;;;;5.97;3.47;;;;;;;;;;10416766;28;20033;-49
2022/10/28 20:19:48;;;;;;;6.60;3.35;;;;;;;;;;10406841;28;20044;-48
2022/10/28 20:24:49;;;;;;;8.23;3.38;;;;;;;;;;10413506;28;20033;-48
2022/10/28 20:29:49;;;;;;;8.60;2.92;;;;;;;;;;10410717;28;20056;-48
2022/10/28 20:34:49;;;;;;;10.93;3.30;;;;;;;;;;10412339;28;20025;-49
2022/10/28 20:39:50;;;;;;;7.35;3.20;;;;;;;;;;10400065;28;20029;-48
2022/10/28 20:44:50;;;;;;;7.40;2.58;;;;;;;;;;10410981;28;20047;-54
2022/10/28 20:49:52;;;;;;;7.32;3.03;;;;;;;;;;10411871;28;20083;-56
2022/10/28 20:54:53;;;;;;;8.15;3.13;;;;;;;;;;10385613;28;20072;-57
2022/10/28 20:59:53;;;;;;;6.20;3.30;;;;;;;;;;10406128;28;20041;-59
2022/10/28 21:04:53;;;;;;;7.32;2.90;;;;;;;;;;10410988;28;20361;-50
2022/10/28 21:09:54;;;;;;;4.13;2.45;;;;;;;;;;10405224;28;20026;-56
2022/10/28 21:14:54;;;;;;;9.03;3.10;;;;;;;;;;10408405;28;20136;-59
2022/10/28 21:19:54;;;;;;;5.68;2.38;;;;;;;;;;10390122;28;20031;-60
2022/10/28 21:24:55;;;;;;;8.80;3.08;;;;;;;;;;10411221;28;20029;-52
2022/10/28 21:29:58;;;;;;;9.67;3.93;;;;;;;;;;10385234;28;20044;-55
2022/10/28 21:34:58;;;;;;;7.65;2.72;;;;;;;;;;10399048;28;20077;-56
2022/10/28 21:39:58;;;;;;;6.13;3.13;;;;;;;;;;10382623;28;20127;-54
2022/10/28 21:44:59;;;;;;;4.47;2.80;;;;;;;;;;10398314;28;20088;-54
2022/10/28 21:49:59;;;;;;;16.50;3.20;;;;;;;;;;10399665;28;20029;-57
2022/10/28 21:54:59;;;;;;;10.70;2.85;;;;;;;;;;10401813;28;20278;-60
2022/10/28 22:00:00;;;;;;;6.95;3.78;;;;;;;;;;10391924;28;20107;-62
2022/10/28 22:05:00;;;;;;;11.68;3.03;;;;;;;;;;10405444;28;20292;-64
2022/10/28 22:10:00;;;;;;;10.30;3.35;;;;;;;;;;10396714;28;20608;-61
2022/10/28 22:15:00;;;;;;;13.07;2.67;;;;;;;;;;10403131;28;20030;-50
2022/10/28 22:20:01;;;;;;;6.07;3.03;;;;;;;;;;10392704;28;20428;-61
2022/10/28 22:25:01;;;;;;;9.77;2.97;;;;;;;;;;10379584;28;20520;-59
2022/10/28 22:30:02;;;;;;;15.18;3.50;;;;;;;;;;10398274;28;20117;-61
2022/10/28 22:35:02;;;;;;;8.88;3.08;;;;;;;;;;10394367;28;20037;-48
2022/10/28 22:40:03;;;;;;;7.07;2.80;;;;;;;;;;10389789;28;20445;-58
2022/10/28 22:45:03;;;;;;;7.53;3.23;;;;;;;;;;10394047;28;20476;-60
2022/10/28 22:50:04;;;;;;;7.43;3.10;;;;;;;;;;10389435;28;20025;-60
2022/10/28 22:55:04;;;;;;;7.82;2.63;;;;;;;;;;10393925;28;20455;-62
2022/10/28 23:00:05;;;;;;;6.07;2.90;;;;;;;;;;10384770;28;20104;-60
2022/10/28 23:05:06;;;;;;;9.52;2.83;;;;;;;;;;10410925;28;20206;-51
2022/10/28 23:10:06;;;;;;;3.83;2.65;;;;;;;;;;10380431;28;20025;-52
2022/10/28 23:15:07;;;;;;;13.13;3.15;;;;;;;;;;10399492;28;20053;-60
2022/10/28 23:20:07;;;;;;;4.70;2.47;;;;;;;;;;10395103;28;20037;-51
2022/10/28 23:25:08;;;;;;;4.15;2.50;;;;;;;;;;10395866;28;20401;-56
2022/10/28 23:30:11;;;;;;;4.20;2.37;;;;;;;;;;10397076;28;20099;-57
2022/10/28 23:35:11;;;;;;;7.93;2.67;;;;;;;;;;10392955;28;20083;-56
2022/10/28 23:40:12;;;;;;;4.60;2.50;;;;;;;;;;10396303;28;20018;-55
2022/10/28 23:45:12;;;;;;;5.35;3.08;;;;;;;;;;10392253;28;20038;-61
2022/10/28 23:50:13;;;;;;;5.63;2.78;;;;;;;;;;10402585;28;20037;-58
2022/10/28 23:55:14;;;;;;;9.43;2.60;;;;;;;;;;10387382;28;20388;-54
